createdAt,value
2019-05-07T00:01:12.268Z,12.20
2019-05-07T00:03:42.354Z,12.20
2019-05-07T00:06:13.249Z,12.20
2019-05-07T00:08:45.046Z,12.20
2019-05-07T00:11:14.850Z,12.10
2019-05-07T00:13:46.267Z,12.10
2019-05-07T00:16:16.061Z,12.10
2019-05-07T00:18:46.157Z,12.10
2019-05-07T00:21:15.954Z,12.00
2019-05-07T00:23:46.070Z,11.90
2019-05-07T00:26:15.948Z,11.90
2019-05-07T00:28:45.812Z,11.90
2019-05-07T00:31:15.694Z,11.90
2019-05-07T00:33:45.556Z,11.90
2019-05-07T00:36:33.398Z,11.90
2019-05-07T00:39:07.621Z,11.80
2019-05-07T00:41:42.734Z,11.80
2019-05-07T00:44:14.016Z,11.70
2019-05-07T00:46:43.834Z,11.70
2019-05-07T00:49:15.268Z,11.70
2019-05-07T00:51:45.541Z,11.60
2019-05-07T00:54:15.336Z,11.60
2019-05-07T00:56:45.141Z,11.60
2019-05-07T00:59:14.937Z,11.60
2019-05-07T01:01:44.733Z,11.50
2019-05-07T01:04:14.524Z,11.60
2019-05-07T01:06:44.352Z,11.60
2019-05-07T01:09:14.144Z,11.50
2019-05-07T01:11:43.948Z,11.40
2019-05-07T01:14:13.745Z,11.30
2019-05-07T01:16:44.505Z,11.30
2019-05-07T01:19:14.313Z,11.20
2019-05-07T01:21:44.116Z,11.20
2019-05-07T01:24:13.989Z,11.20
2019-05-07T01:26:43.776Z,11.10
2019-05-07T01:29:14.065Z,11.10
2019-05-07T01:31:45.492Z,11.10
2019-05-07T01:34:19.893Z,11.10
2019-05-07T01:36:49.689Z,11.10
2019-05-07T01:39:19.492Z,11.20
2019-05-07T01:41:49.290Z,11.20
2019-05-07T01:44:19.482Z,11.20
2019-05-07T01:46:49.272Z,11.20
2019-05-07T01:49:19.133Z,11.20
2019-05-07T01:51:49.224Z,11.20
2019-05-07T01:54:19.026Z,11.20
2019-05-07T01:56:48.894Z,11.20
2019-05-07T01:59:18.694Z,11.30
2019-05-07T02:01:52.192Z,11.20
2019-05-07T02:04:23.194Z,11.30
2019-05-07T02:07:06.937Z,11.30
2019-05-07T02:09:38.373Z,11.30
2019-05-07T02:12:26.225Z,11.30
2019-05-07T02:14:56.022Z,11.30
2019-05-07T02:17:26.157Z,11.20
2019-05-07T02:19:57.680Z,11.20
2019-05-07T02:22:27.832Z,11.20
2019-05-07T02:24:57.637Z,11.10
2019-05-07T02:27:27.428Z,11.00
2019-05-07T02:29:57.224Z,10.90
2019-05-07T02:32:27.020Z,11.00
2019-05-07T02:34:56.821Z,11.00
2019-05-07T02:37:35.719Z,11.00
2019-05-07T02:40:33.647Z,11.00
2019-05-07T02:43:02.853Z,11.00
2019-05-07T02:45:34.630Z,11.00
2019-05-07T02:48:04.501Z,10.90
2019-05-07T02:50:36.001Z,10.90
2019-05-07T02:53:07.457Z,10.80
2019-05-07T02:55:43.533Z,10.80
2019-05-07T02:58:13.877Z,10.80
2019-05-07T03:00:44.077Z,10.80
2019-05-07T03:03:14.070Z,10.70
2019-05-07T03:05:43.825Z,10.60
2019-05-07T03:08:13.773Z,10.60
2019-05-07T03:10:43.860Z,10.60
2019-05-07T03:13:14.197Z,10.60
2019-05-07T03:15:44.161Z,10.70
2019-05-07T03:18:18.848Z,10.70
2019-05-07T03:20:53.574Z,10.60
2019-05-07T03:23:25.157Z,10.60
2019-05-07T03:25:59.581Z,10.60
2019-05-07T03:28:29.377Z,10.60
2019-05-07T03:31:06.673Z,10.60
2019-05-07T03:33:46.561Z,10.50
2019-05-07T03:36:16.657Z,10.50
2019-05-07T03:38:44.171Z,10.40
2019-05-07T03:41:14.081Z,10.40
2019-05-07T03:43:44.349Z,10.40
2019-05-07T03:46:15.785Z,10.40
2019-05-07T03:48:46.648Z,10.40
2019-05-07T03:51:17.525Z,10.30
2019-05-07T03:53:47.314Z,10.30
2019-05-07T03:56:17.109Z,10.20
2019-05-07T03:58:46.977Z,10.20
2019-05-07T04:01:16.781Z,10.20
2019-05-07T04:03:47.978Z,10.20
2019-05-07T04:06:17.866Z,10.20
2019-05-07T04:08:47.657Z,10.10
2019-05-07T04:11:17.462Z,10.10
2019-05-07T04:13:47.651Z,10.10
2019-05-07T04:16:17.455Z,10.00
2019-05-07T04:18:47.325Z,10.00
2019-05-07T04:21:17.395Z,10.00
2019-05-07T04:23:48.831Z,10.00
2019-05-07T04:26:33.987Z,10.00
2019-05-07T04:29:06.324Z,10.00
2019-05-07T04:31:38.054Z,9.90
2019-05-07T04:34:09.481Z,9.90
2019-05-07T04:36:43.691Z,9.90
2019-05-07T04:39:13.243Z,9.90
2019-05-07T04:41:43.639Z,9.90
2019-05-07T04:44:14.388Z,9.90
2019-05-07T04:46:47.974Z,10.00
2019-05-07T04:49:15.686Z,10.00
2019-05-07T04:51:47.186Z,10.10
2019-05-07T04:54:17.053Z,10.20
2019-05-07T04:56:46.869Z,10.40
2019-05-07T04:59:16.658Z,10.50
2019-05-07T05:01:53.306Z,10.70
2019-05-07T05:04:30.245Z,10.80
2019-05-07T05:06:53.694Z,11.00
2019-05-07T05:09:23.599Z,11.20
2019-05-07T05:11:53.395Z,11.50
2019-05-07T05:14:23.257Z,11.70
2019-05-07T05:16:54.035Z,12.00
2019-05-07T05:19:23.838Z,12.20
2019-05-07T05:22:01.972Z,12.50
2019-05-07T05:24:36.231Z,12.70
2019-05-07T05:27:06.018Z,12.80
2019-05-07T05:29:37.264Z,13.00
2019-05-07T05:32:07.073Z,13.10
2019-05-07T05:34:37.931Z,13.20
2019-05-07T05:37:07.724Z,13.40
2019-05-07T05:39:37.546Z,13.50
2019-05-07T05:42:15.232Z,13.70
2019-05-07T05:44:45.046Z,13.80
2019-05-07T05:47:15.125Z,14.00
2019-05-07T05:49:45.201Z,14.10
2019-05-07T05:52:28.665Z,14.10
2019-05-07T05:55:02.425Z,14.10
2019-05-07T05:57:45.190Z,14.30
2019-05-07T06:00:21.935Z,14.40
2019-05-07T06:02:55.273Z,14.60
2019-05-07T06:05:42.936Z,14.80
2019-05-07T06:08:17.726Z,14.90
2019-05-07T06:10:51.777Z,15.10
2019-05-07T06:13:23.115Z,15.30
2019-05-07T06:15:57.564Z,15.40
2019-05-07T06:18:45.036Z,15.50
2019-05-07T06:21:16.479Z,15.60
2019-05-07T06:23:47.912Z,15.90
2019-05-07T06:26:18.144Z,16.10
2019-05-07T06:28:47.941Z,16.20
2019-05-07T06:31:22.171Z,16.40
2019-05-07T06:33:52.377Z,16.70
2019-05-07T06:36:22.534Z,17.10
2019-05-07T06:38:53.980Z,17.50
2019-05-07T06:41:34.629Z,17.70
2019-05-07T06:44:06.380Z,17.80
2019-05-07T06:46:38.753Z,18.00
2019-05-07T06:49:07.700Z,18.10
2019-05-07T06:51:37.537Z,18.20
2019-05-07T06:54:07.374Z,18.20
2019-05-07T06:56:37.236Z,18.30
2019-05-07T06:59:08.748Z,18.50
2019-05-07T07:01:45.884Z,18.60
2019-05-07T07:04:17.323Z,18.70
2019-05-07T07:06:52.441Z,18.90
2019-05-07T07:09:23.484Z,19.20
2019-05-07T07:12:13.052Z,19.20
2019-05-07T07:14:43.349Z,19.30
2019-05-07T07:17:13.221Z,19.30
2019-05-07T07:19:43.017Z,19.40
2019-05-07T07:22:13.154Z,19.40
2019-05-07T07:24:43.061Z,19.60
2019-05-07T07:27:13.311Z,19.60
2019-05-07T07:29:48.852Z,19.70
2019-05-07T07:32:22.141Z,19.80
2019-05-07T07:34:53.533Z,19.90
2019-05-07T07:37:27.692Z,19.90
2019-05-07T07:40:08.368Z,20.00
2019-05-07T07:42:38.230Z,19.80
2019-05-07T07:45:15.737Z,19.80
2019-05-07T07:47:46.468Z,19.90
2019-05-07T07:50:16.501Z,20.00
2019-05-07T07:52:46.301Z,20.10
2019-05-07T07:55:17.889Z,20.20
2019-05-07T07:57:49.326Z,20.00
2019-05-07T08:00:23.487Z,20.00
2019-05-07T08:02:54.921Z,20.00
2019-05-07T08:05:24.718Z,20.10
2019-05-07T08:07:54.517Z,20.00
2019-05-07T08:10:24.316Z,20.00
2019-05-07T08:16:02.329Z,19.80
2019-05-07T08:18:32.788Z,19.90
2019-05-07T08:21:02.705Z,20.00
2019-05-07T08:23:32.500Z,20.00
2019-05-07T08:26:02.617Z,20.20
2019-05-07T08:28:32.508Z,20.20
2019-05-07T08:31:12.047Z,20.40
2019-05-07T08:33:49.418Z,20.50
2019-05-07T08:36:22.610Z,20.50
2019-05-07T08:38:56.471Z,20.40
2019-05-07T08:41:27.100Z,20.50
2019-05-07T08:44:11.269Z,20.60
2019-05-07T08:46:42.178Z,20.70
2019-05-07T08:49:13.993Z,20.70
2019-05-07T08:51:43.825Z,20.70
2019-05-07T08:54:13.623Z,20.70
2019-05-07T08:56:43.437Z,20.60
2019-05-07T08:59:13.245Z,20.70
2019-05-07T09:01:43.467Z,20.80
2019-05-07T09:04:13.674Z,20.80
2019-05-07T09:06:43.568Z,20.70
2019-05-07T09:09:13.605Z,20.70
2019-05-07T09:11:43.566Z,20.80
2019-05-07T09:14:13.704Z,20.80
2019-05-07T09:16:43.498Z,21.00
2019-05-07T09:19:13.297Z,20.90
2019-05-07T09:21:43.186Z,20.80
2019-05-07T09:24:13.091Z,20.90
2019-05-07T09:26:47.236Z,20.90
2019-05-07T09:29:19.133Z,20.80
2019-05-07T09:31:52.650Z,20.90
2019-05-07T09:34:36.240Z,20.90
2019-05-07T09:37:07.679Z,20.90
2019-05-07T09:39:42.659Z,21.00
2019-05-07T09:42:12.294Z,20.90
2019-05-07T09:44:42.495Z,21.00
2019-05-07T09:47:12.894Z,21.00
2019-05-07T09:49:43.219Z,21.00
2019-05-07T09:52:13.409Z,21.10
2019-05-07T09:54:43.211Z,21.10
2019-05-07T09:57:27.406Z,21.10
2019-05-07T09:59:44.425Z,21.20
2019-05-07T10:02:14.298Z,21.00
2019-05-07T10:04:44.096Z,21.00
2019-05-07T10:07:13.905Z,21.00
2019-05-07T10:09:43.704Z,21.10
2019-05-07T10:12:22.729Z,21.20
2019-05-07T10:14:52.526Z,21.40
2019-05-07T10:17:32.613Z,21.30
2019-05-07T10:20:04.428Z,21.30
2019-05-07T10:22:33.275Z,21.30
2019-05-07T10:25:03.374Z,21.20
2019-05-07T10:27:33.209Z,21.30
2019-05-07T10:30:03.349Z,21.30
2019-05-07T10:32:34.753Z,21.10
2019-05-07T10:35:06.921Z,20.90
2019-05-07T10:37:37.068Z,20.90
2019-05-07T10:40:07.406Z,20.90
2019-05-07T10:42:37.268Z,21.00
2019-05-07T10:45:24.997Z,20.90
2019-05-07T10:47:56.438Z,20.90
2019-05-07T10:50:36.476Z,20.70
2019-05-07T10:52:59.304Z,20.70
2019-05-07T10:55:29.106Z,20.70
2019-05-07T10:57:58.972Z,20.60
2019-05-07T11:00:28.842Z,20.60
2019-05-07T11:02:58.717Z,20.40
2019-05-07T11:05:28.521Z,20.40
2019-05-07T11:07:58.314Z,20.40
2019-05-07T11:10:28.118Z,20.40
2019-05-07T11:12:57.986Z,20.30
2019-05-07T11:15:27.918Z,20.30
2019-05-07T11:18:12.660Z,20.30
2019-05-07T11:20:49.680Z,20.20
2019-05-07T11:23:14.024Z,20.30
2019-05-07T11:25:43.889Z,20.30
2019-05-07T11:28:13.693Z,20.30
2019-05-07T11:30:43.757Z,20.40
2019-05-07T11:33:13.566Z,20.50
2019-05-07T11:35:43.357Z,20.50
2019-05-07T11:38:20.768Z,20.60
2019-05-07T11:40:44.582Z,20.60
2019-05-07T11:43:24.980Z,20.60
2019-05-07T11:46:01.829Z,20.50
2019-05-07T11:48:36.188Z,20.30
2019-05-07T11:51:06.646Z,20.30
2019-05-07T11:53:38.406Z,20.30
2019-05-07T11:56:08.204Z,20.30
2019-05-07T11:58:38.005Z,20.40
2019-05-07T12:01:09.789Z,20.40
2019-05-07T12:03:39.669Z,20.50
2019-05-07T12:06:09.533Z,20.50
2019-05-07T12:08:48.090Z,20.60
2019-05-07T12:11:11.888Z,20.60
2019-05-07T12:13:42.733Z,20.50
2019-05-07T12:16:14.232Z,20.50
2019-05-07T12:18:44.509Z,20.50
2019-05-07T12:21:20.234Z,20.60
2019-05-07T12:23:45.740Z,20.60
2019-05-07T12:26:15.539Z,20.60
2019-05-07T12:28:45.332Z,20.70
2019-05-07T12:31:28.747Z,20.70
2019-05-07T12:34:02.428Z,20.60
2019-05-07T12:36:32.151Z,20.60
2019-05-07T12:39:02.470Z,20.70
2019-05-07T12:41:34.401Z,20.60
2019-05-07T12:44:06.299Z,20.60
2019-05-07T12:46:36.208Z,20.70
2019-05-07T12:49:06.430Z,20.70
2019-05-07T12:51:38.134Z,20.80
2019-05-07T12:54:11.875Z,20.90
2019-05-07T12:56:42.642Z,20.90
2019-05-07T12:59:13.769Z,20.90
2019-05-07T13:01:45.210Z,20.90
2019-05-07T13:04:22.011Z,20.70
2019-05-07T13:07:02.484Z,20.60
2019-05-07T13:09:32.545Z,20.40
2019-05-07T13:12:03.010Z,20.40
2019-05-07T13:14:32.896Z,20.50
2019-05-07T13:17:02.883Z,20.50
2019-05-07T13:19:33.156Z,20.50
2019-05-07T13:22:03.048Z,20.50
2019-05-07T13:24:34.476Z,20.50
2019-05-07T13:27:04.343Z,20.40
2019-05-07T13:29:34.134Z,20.50
2019-05-07T13:32:03.997Z,20.40
2019-05-07T13:34:34.877Z,20.30
2019-05-07T13:37:06.303Z,20.20
2019-05-07T13:39:37.751Z,20.20
2019-05-07T13:42:25.624Z,20.30
2019-05-07T13:44:57.060Z,20.40
2019-05-07T13:47:31.207Z,20.40
2019-05-07T13:50:02.598Z,20.50
2019-05-07T13:52:33.135Z,20.50
2019-05-07T13:55:03.080Z,20.60
2019-05-07T13:57:32.885Z,20.60
2019-05-07T14:00:05.086Z,20.70
2019-05-07T14:02:36.512Z,20.60
2019-05-07T14:05:06.689Z,20.60
2019-05-07T14:07:38.267Z,20.30
2019-05-07T14:10:08.129Z,20.30
2019-05-07T14:12:37.993Z,20.20
2019-05-07T14:15:07.788Z,20.30
2019-05-07T14:17:37.662Z,20.30
2019-05-07T14:20:07.497Z,20.40
2019-05-07T14:22:37.437Z,20.40
2019-05-07T14:25:07.236Z,20.40
2019-05-07T14:27:37.105Z,20.30
2019-05-07T14:30:07.611Z,20.30
2019-05-07T14:32:52.573Z,20.40
2019-05-07T14:35:26.795Z,20.50
2019-05-07T14:38:00.977Z,20.60
2019-05-07T14:40:33.077Z,20.60
2019-05-07T14:43:04.525Z,20.70
2019-05-07T14:45:34.350Z,20.80
2019-05-07T14:48:04.166Z,20.80
2019-05-07T14:50:33.952Z,20.80
2019-05-07T14:53:04.833Z,20.80
2019-05-07T14:55:34.628Z,20.70
2019-05-07T14:58:05.508Z,20.60
2019-05-07T15:00:35.442Z,20.50
2019-05-07T15:03:05.299Z,20.40
2019-05-07T15:05:35.099Z,20.40
2019-05-07T15:08:10.576Z,20.50
2019-05-07T15:10:36.306Z,20.40
2019-05-07T15:13:06.096Z,20.40
2019-05-07T15:15:35.898Z,20.30
2019-05-07T15:18:12.490Z,20.30
2019-05-07T15:20:43.244Z,20.40
2019-05-07T15:23:14.692Z,20.40
2019-05-07T15:25:44.485Z,20.50
2019-05-07T15:28:14.289Z,20.60
2019-05-07T15:30:54.604Z,20.60
2019-05-07T15:33:24.413Z,20.70
2019-05-07T15:35:54.201Z,20.70
2019-05-07T15:38:24.104Z,20.80
2019-05-07T15:40:53.905Z,20.80
2019-05-07T15:43:24.109Z,20.80
2019-05-07T15:45:53.909Z,20.80
2019-05-07T15:48:23.773Z,20.80
2019-05-07T15:50:53.572Z,20.80
2019-05-07T15:53:27.949Z,20.80
2019-05-07T15:55:57.743Z,20.80
2019-05-07T15:58:27.541Z,20.80
2019-05-07T16:00:57.345Z,20.80
2019-05-07T16:03:29.179Z,20.90
2019-05-07T16:05:59.034Z,20.80
2019-05-07T16:08:32.017Z,20.80
2019-05-07T16:11:03.756Z,20.80
2019-05-07T16:13:38.240Z,20.80
2019-05-07T16:16:08.111Z,20.80
2019-05-07T16:18:56.080Z,20.80
2019-05-07T16:21:26.847Z,20.90
2019-05-07T16:23:56.925Z,20.80
2019-05-07T16:26:26.731Z,20.80
2019-05-07T16:28:56.592Z,20.80
2019-05-07T16:31:26.697Z,20.70
2019-05-07T16:33:56.495Z,20.70
2019-05-07T16:36:26.297Z,20.70
2019-05-07T16:38:56.156Z,20.70
2019-05-07T16:41:25.961Z,20.70
2019-05-07T16:43:55.772Z,20.60
2019-05-07T16:46:25.568Z,20.60
2019-05-07T16:48:55.364Z,20.60
2019-05-07T16:51:25.166Z,20.60
2019-05-07T16:53:54.965Z,20.60
2019-05-07T16:56:24.768Z,20.70
2019-05-07T16:59:08.501Z,20.60
2019-05-07T17:01:39.364Z,20.60
2019-05-07T17:04:09.162Z,20.60
2019-05-07T17:06:39.033Z,20.60
2019-05-07T17:09:13.683Z,20.60
2019-05-07T17:11:43.903Z,20.40
2019-05-07T17:14:13.840Z,20.30
2019-05-07T17:16:43.648Z,20.40
2019-05-07T17:19:14.813Z,20.30
2019-05-07T17:21:44.689Z,20.30
2019-05-07T17:24:14.552Z,20.20
2019-05-07T17:26:44.353Z,20.10
2019-05-07T17:29:26.692Z,20.20
2019-05-07T17:31:56.552Z,20.20
2019-05-07T17:34:26.425Z,20.20
2019-05-07T17:36:56.288Z,20.20
2019-05-07T17:39:26.093Z,20.30
2019-05-07T17:41:55.961Z,20.30
2019-05-07T17:44:25.764Z,20.20
2019-05-07T17:46:55.561Z,20.10
2019-05-07T17:49:25.693Z,20.10
2019-05-07T17:51:55.787Z,20.00
2019-05-07T17:54:25.580Z,20.10
2019-05-07T17:56:55.377Z,20.00
2019-05-07T17:59:25.200Z,20.00
2019-05-07T18:01:56.649Z,20.00
2019-05-07T18:04:26.876Z,20.00
2019-05-07T18:07:00.113Z,19.90
2019-05-07T18:09:28.636Z,19.80
2019-05-07T18:11:58.500Z,19.60
2019-05-07T18:14:28.370Z,19.50
2019-05-07T18:17:02.000Z,19.20
2019-05-07T18:19:33.141Z,19.20
2019-05-07T18:22:03.382Z,19.20
2019-05-07T18:24:33.629Z,19.10
2019-05-07T18:27:05.473Z,19.00
2019-05-07T18:29:35.269Z,18.80
2019-05-07T18:32:06.837Z,18.80
2019-05-07T18:34:37.704Z,18.70
2019-05-07T18:37:07.506Z,18.70
2019-05-07T18:39:37.311Z,18.70
2019-05-07T18:42:07.091Z,18.70
2019-05-07T18:44:36.965Z,18.70
2019-05-07T18:47:06.757Z,18.70
2019-05-07T18:49:36.561Z,18.70
2019-05-07T18:52:06.668Z,18.70
2019-05-07T18:54:36.460Z,18.70
2019-05-07T18:57:06.256Z,18.70
2019-05-07T18:59:37.103Z,18.60
2019-05-07T19:02:07.771Z,18.60
2019-05-07T19:04:37.639Z,18.60
2019-05-07T19:07:07.448Z,18.60
2019-05-07T19:09:37.231Z,18.50
2019-05-07T19:12:08.899Z,18.50
2019-05-07T19:14:38.708Z,18.30
2019-05-07T19:17:08.569Z,18.30
2019-05-07T19:19:38.367Z,18.20
2019-05-07T19:22:08.156Z,18.30
2019-05-07T19:24:45.356Z,18.20
2019-05-07T19:27:12.633Z,18.10
2019-05-07T19:29:45.698Z,18.00
2019-05-07T19:32:14.761Z,17.90
2019-05-07T19:34:44.630Z,17.90
2019-05-07T19:37:14.420Z,17.90
2019-05-07T19:39:44.392Z,17.90
2019-05-07T19:42:14.193Z,17.80
2019-05-07T19:44:44.401Z,17.70
2019-05-07T19:47:14.199Z,17.60
2019-05-07T19:49:44.006Z,17.50
2019-05-07T19:52:13.801Z,17.50
2019-05-07T19:54:57.663Z,17.50
2019-05-07T19:57:21.096Z,17.50
2019-05-07T19:59:52.239Z,17.40
2019-05-07T20:02:31.999Z,17.40
2019-05-07T20:05:03.515Z,17.40
2019-05-07T20:07:33.076Z,17.50
2019-05-07T20:10:03.021Z,17.30
2019-05-07T20:12:34.249Z,17.20
2019-05-07T20:15:04.981Z,17.10
2019-05-07T20:17:34.852Z,17.10
2019-05-07T20:20:05.729Z,17.10
2019-05-07T20:22:35.593Z,17.20
2019-05-07T20:25:15.380Z,17.20
2019-05-07T20:27:38.973Z,17.20
2019-05-07T20:30:08.779Z,17.30
2019-05-07T20:32:39.737Z,17.30
2019-05-07T20:35:09.613Z,17.40
2019-05-07T20:37:41.789Z,17.40
2019-05-07T20:40:12.246Z,17.40
2019-05-07T20:42:42.889Z,17.40
2019-05-07T20:45:13.885Z,17.40
2019-05-07T20:47:43.962Z,17.30
2019-05-07T20:50:13.756Z,17.40
2019-05-07T20:52:43.633Z,17.40
2019-05-07T20:55:33.271Z,17.30
2019-05-07T20:58:03.189Z,17.40
2019-05-07T21:00:33.204Z,17.40
2019-05-07T21:03:23.741Z,17.30
2019-05-07T21:05:53.376Z,17.20
2019-05-07T21:08:24.229Z,17.20
2019-05-07T21:10:54.022Z,17.10
2019-05-07T21:13:30.385Z,17.10
2019-05-07T21:15:56.633Z,17.00
2019-05-07T21:18:26.466Z,16.90
2019-05-07T21:20:56.235Z,16.80
2019-05-07T21:23:26.024Z,16.80
2019-05-07T21:25:55.826Z,16.80
2019-05-07T21:28:25.619Z,16.70
2019-05-07T21:30:55.414Z,16.70
2019-05-07T21:33:25.496Z,16.60
2019-05-07T21:35:55.609Z,16.50
2019-05-07T21:38:25.728Z,16.50
2019-05-07T21:40:55.594Z,16.50
2019-05-07T21:43:25.399Z,16.50
2019-05-07T21:45:55.228Z,16.40
2019-05-07T21:48:25.093Z,16.40
2019-05-07T21:50:55.377Z,16.40
2019-05-07T21:53:42.931Z,16.30
2019-05-07T21:56:22.667Z,16.30
2019-05-07T21:58:59.445Z,16.20
2019-05-07T22:01:32.736Z,16.10
2019-05-07T22:04:02.373Z,16.10
2019-05-07T22:06:32.169Z,16.00
2019-05-07T22:09:02.186Z,16.00
2019-05-07T22:11:33.545Z,15.90
2019-05-07T22:14:03.338Z,15.80
2019-05-07T22:16:33.135Z,15.80
2019-05-07T22:19:02.958Z,15.80
2019-05-07T22:21:34.305Z,15.70
2019-05-07T22:24:04.303Z,15.70
2019-05-07T22:26:34.096Z,15.60
2019-05-07T22:29:04.279Z,15.50
2019-05-07T22:31:35.712Z,15.50
2019-05-07T22:34:07.148Z,15.40
2019-05-07T22:36:48.961Z,15.40
2019-05-07T22:39:23.294Z,15.30
2019-05-07T22:41:54.687Z,15.30
2019-05-07T22:44:26.381Z,15.20
2019-05-07T22:46:57.989Z,15.10
2019-05-07T22:49:28.194Z,15.10
2019-05-07T22:51:57.986Z,15.10
2019-05-07T22:54:27.798Z,15.00
2019-05-07T22:57:08.308Z,15.00
2019-05-07T22:59:38.472Z,15.00
2019-05-07T23:02:08.750Z,15.00
2019-05-07T23:04:38.541Z,15.00
2019-05-07T23:07:08.734Z,14.90
2019-05-07T23:09:38.597Z,14.90
2019-05-07T23:12:08.396Z,14.80
2019-05-07T23:14:38.201Z,14.80
2019-05-07T23:17:08.000Z,14.80
2019-05-07T23:19:37.802Z,14.80
2019-05-07T23:22:07.600Z,14.80
2019-05-07T23:24:37.401Z,14.80
2019-05-07T23:27:07.201Z,14.80
2019-05-07T23:29:36.999Z,14.70
2019-05-07T23:32:07.157Z,14.70
2019-05-07T23:34:36.969Z,14.80
2019-05-07T23:37:06.759Z,14.80
2019-05-07T23:39:44.072Z,14.90
2019-05-07T23:42:21.717Z,14.80
2019-05-07T23:44:52.362Z,14.70
2019-05-07T23:47:22.769Z,14.70
2019-05-07T23:49:52.627Z,14.80
2019-05-07T23:52:23.497Z,14.70
2019-05-07T23:54:53.592Z,14.70
2019-05-07T23:57:23.717Z,14.60
2019-05-07T23:59:53.503Z,14.60
